sensor_id;sensor_type;location;lat;lon;timestamp;P1;durP1;ratioP1;P2;durP2;ratioP2
21754;SDS011;11039;50.028;19.938;2022-11-20T00:01:52;18.42;;;14.75;;
21754;SDS011;11039;50.028;19.938;2022-11-20T00:04:18;18.48;;;14.45;;
21754;SDS011;11039;50.028;19.938;2022-11-20T00:06:44;16.75;;;14.20;;
21754;SDS011;11039;50.028;19.938;2022-11-20T00:09:10;18.08;;;14.43;;
21754;SDS011;11039;50.028;19.938;2022-11-20T00:11:36;17.60;;;13.85;;
21754;SDS011;11039;50.028;19.938;2022-11-20T00:14:02;19.15;;;14.98;;
21754;SDS011;11039;50.028;19.938;2022-11-20T00:16:30;19.48;;;14.98;;
21754;SDS011;11039;50.028;19.938;2022-11-20T00:18:56;17.83;;;15.07;;
21754;SDS011;11039;50.028;19.938;2022-11-20T00:21:24;19.02;;;14.23;;
21754;SDS011;11039;50.028;19.938;2022-11-20T00:23:50;17.92;;;14.85;;
21754;SDS011;11039;50.028;19.938;2022-11-20T00:26:18;19.45;;;14.57;;
21754;SDS011;11039;50.028;19.938;2022-11-20T00:28:48;18.55;;;15.15;;
21754;SDS011;11039;50.028;19.938;2022-11-20T00:31:14;20.55;;;15.48;;
21754;SDS011;11039;50.028;19.938;2022-11-20T00:33:41;19.42;;;15.48;;
21754;SDS011;11039;50.028;19.938;2022-11-20T00:36:08;17.95;;;14.73;;
21754;SDS011;11039;50.028;19.938;2022-11-20T00:38:35;18.73;;;15.65;;
21754;SDS011;11039;50.028;19.938;2022-11-20T00:41:03;19.35;;;15.02;;
21754;SDS011;11039;50.028;19.938;2022-11-20T00:43:29;17.98;;;15.02;;
21754;SDS011;11039;50.028;19.938;2022-11-20T00:45:56;17.90;;;15.32;;
21754;SDS011;11039;50.028;19.938;2022-11-20T00:48:22;20.23;;;15.80;;
21754;SDS011;11039;50.028;19.938;2022-11-20T00:50:48;20.13;;;16.10;;
21754;SDS011;11039;50.028;19.938;2022-11-20T00:53:14;21.38;;;16.30;;
21754;SDS011;11039;50.028;19.938;2022-11-20T00:55:40;18.98;;;15.77;;
21754;SDS011;11039;50.028;19.938;2022-11-20T00:58:06;19.75;;;15.93;;
21754;SDS011;11039;50.028;19.938;2022-11-20T01:00:32;21.58;;;16.02;;
21754;SDS011;11039;50.028;19.938;2022-11-20T01:02:59;19.27;;;16.40;;
21754;SDS011;11039;50.028;19.938;2022-11-20T01:05:25;19.27;;;16.40;;
21754;SDS011;11039;50.028;19.938;2022-11-20T01:07:51;18.63;;;15.30;;
21754;SDS011;11039;50.028;19.938;2022-11-20T01:10:17;20.67;;;16.80;;
21754;SDS011;11039;50.028;19.938;2022-11-20T01:12:43;21.05;;;17.05;;
21754;SDS011;11039;50.028;19.938;2022-11-20T01:15:28;20.40;;;17.08;;
21754;SDS011;11039;50.028;19.938;2022-11-20T01:17:54;20.55;;;16.77;;
21754;SDS011;11039;50.028;19.938;2022-11-20T01:20:21;21.70;;;17.85;;
21754;SDS011;11039;50.028;19.938;2022-11-20T01:22:47;19.70;;;17.05;;
21754;SDS011;11039;50.028;19.938;2022-11-20T01:25:13;20.60;;;17.25;;
21754;SDS011;11039;50.028;19.938;2022-11-20T01:27:39;22.55;;;16.90;;
21754;SDS011;11039;50.028;19.938;2022-11-20T01:30:05;21.58;;;17.73;;
21754;SDS011;11039;50.028;19.938;2022-11-20T01:32:31;21.65;;;18.13;;
21754;SDS011;11039;50.028;19.938;2022-11-20T01:34:57;21.23;;;17.98;;
21754;SDS011;11039;50.028;19.938;2022-11-20T01:37:23;21.65;;;18.70;;
21754;SDS011;11039;50.028;19.938;2022-11-20T01:39:49;22.10;;;17.98;;
21754;SDS011;11039;50.028;19.938;2022-11-20T01:42:15;23.23;;;19.00;;
21754;SDS011;11039;50.028;19.938;2022-11-20T01:45:00;22.58;;;18.20;;
21754;SDS011;11039;50.028;19.938;2022-11-20T01:47:37;22.70;;;18.67;;
21754;SDS011;11039;50.028;19.938;2022-11-20T01:50:06;25.13;;;20.92;;
21754;SDS011;11039;50.028;19.938;2022-11-20T01:52:42;24.00;;;19.70;;
21754;SDS011;11039;50.028;19.938;2022-11-20T01:55:12;25.20;;;20.60;;
21754;SDS011;11039;50.028;19.938;2022-11-20T01:57:39;22.85;;;19.73;;
21754;SDS011;11039;50.028;19.938;2022-11-20T02:00:07;25.38;;;20.98;;
21754;SDS011;11039;50.028;19.938;2022-11-20T02:02:34;26.75;;;21.95;;
21754;SDS011;11039;50.028;19.938;2022-11-20T02:05:02;25.27;;;20.75;;
21754;SDS011;11039;50.028;19.938;2022-11-20T02:07:30;26.23;;;21.15;;
21754;SDS011;11039;50.028;19.938;2022-11-20T02:09:56;26.38;;;20.80;;
21754;SDS011;11039;50.028;19.938;2022-11-20T02:12:22;24.75;;;21.08;;
21754;SDS011;11039;50.028;19.938;2022-11-20T02:15:17;27.02;;;21.88;;
21754;SDS011;11039;50.028;19.938;2022-11-20T02:17:43;26.42;;;22.02;;
21754;SDS011;11039;50.028;19.938;2022-11-20T02:20:10;27.92;;;22.08;;
21754;SDS011;11039;50.028;19.938;2022-11-20T02:22:38;26.90;;;22.17;;
21754;SDS011;11039;50.028;19.938;2022-11-20T02:25:05;27.13;;;22.08;;
21754;SDS011;11039;50.028;19.938;2022-11-20T02:27:32;28.45;;;23.08;;
21754;SDS011;11039;50.028;19.938;2022-11-20T02:30:05;28.65;;;23.08;;
21754;SDS011;11039;50.028;19.938;2022-11-20T02:32:36;29.25;;;23.77;;
21754;SDS011;11039;50.028;19.938;2022-11-20T02:35:07;28.27;;;24.02;;
21754;SDS011;11039;50.028;19.938;2022-11-20T02:37:34;29.10;;;23.38;;
21754;SDS011;11039;50.028;19.938;2022-11-20T02:40:00;29.10;;;24.80;;
21754;SDS011;11039;50.028;19.938;2022-11-20T02:42:26;30.80;;;24.27;;
21754;SDS011;11039;50.028;19.938;2022-11-20T02:44:52;29.08;;;23.52;;
21754;SDS011;11039;50.028;19.938;2022-11-20T02:47:18;31.75;;;23.90;;
21754;SDS011;11039;50.028;19.938;2022-11-20T02:49:44;28.77;;;23.73;;
21754;SDS011;11039;50.028;19.938;2022-11-20T02:52:10;28.92;;;23.42;;
21754;SDS011;11039;50.028;19.938;2022-11-20T02:54:36;29.33;;;24.27;;
21754;SDS011;11039;50.028;19.938;2022-11-20T02:57:02;29.42;;;24.23;;
21754;SDS011;11039;50.028;19.938;2022-11-20T02:59:28;31.27;;;23.58;;
21754;SDS011;11039;50.028;19.938;2022-11-20T03:01:54;29.75;;;24.42;;
21754;SDS011;11039;50.028;19.938;2022-11-20T03:04:20;28.65;;;23.48;;
21754;SDS011;11039;50.028;19.938;2022-11-20T03:06:46;31.05;;;24.63;;
21754;SDS011;11039;50.028;19.938;2022-11-20T03:09:12;30.15;;;25.00;;
21754;SDS011;11039;50.028;19.938;2022-11-20T03:11:38;32.08;;;24.85;;
21754;SDS011;11039;50.028;19.938;2022-11-20T03:14:04;31.50;;;25.65;;
21754;SDS011;11039;50.028;19.938;2022-11-20T03:16:31;30.83;;;25.02;;
21754;SDS011;11039;50.028;19.938;2022-11-20T03:18:57;30.05;;;24.67;;
21754;SDS011;11039;50.028;19.938;2022-11-20T03:21:23;29.95;;;24.33;;
21754;SDS011;11039;50.028;19.938;2022-11-20T03:23:49;31.35;;;25.33;;
21754;SDS011;11039;50.028;19.938;2022-11-20T03:26:19;30.92;;;25.40;;
21754;SDS011;11039;50.028;19.938;2022-11-20T03:28:47;30.70;;;25.20;;
21754;SDS011;11039;50.028;19.938;2022-11-20T03:31:14;30.48;;;25.35;;
21754;SDS011;11039;50.028;19.938;2022-11-20T03:33:41;28.55;;;24.77;;
21754;SDS011;11039;50.028;19.938;2022-11-20T03:36:08;32.53;;;25.58;;
21754;SDS011;11039;50.028;19.938;2022-11-20T03:38:35;31.30;;;25.02;;
21754;SDS011;11039;50.028;19.938;2022-11-20T03:41:05;32.30;;;26.25;;
21754;SDS011;11039;50.028;19.938;2022-11-20T03:43:32;29.70;;;24.50;;
21754;SDS011;11039;50.028;19.938;2022-11-20T03:45:58;31.90;;;25.45;;
21754;SDS011;11039;50.028;19.938;2022-11-20T03:48:24;30.92;;;25.55;;
21754;SDS011;11039;50.028;19.938;2022-11-20T03:50:51;31.80;;;25.38;;
21754;SDS011;11039;50.028;19.938;2022-11-20T03:53:17;28.65;;;24.20;;
21754;SDS011;11039;50.028;19.938;2022-11-20T03:55:44;30.42;;;24.50;;
21754;SDS011;11039;50.028;19.938;2022-11-20T03:58:10;29.33;;;24.08;;
21754;SDS011;11039;50.028;19.938;2022-11-20T04:00:36;30.92;;;25.52;;
21754;SDS011;11039;50.028;19.938;2022-11-20T04:03:02;30.42;;;24.83;;
21754;SDS011;11039;50.028;19.938;2022-11-20T04:05:28;29.63;;;24.60;;
21754;SDS011;11039;50.028;19.938;2022-11-20T04:07:54;30.73;;;25.65;;
21754;SDS011;11039;50.028;19.938;2022-11-20T04:10:20;31.00;;;24.58;;
21754;SDS011;11039;50.028;19.938;2022-11-20T04:12:46;28.23;;;23.95;;
21754;SDS011;11039;50.028;19.938;2022-11-20T04:15:12;30.52;;;24.83;;
21754;SDS011;11039;50.028;19.938;2022-11-20T04:17:38;28.83;;;24.33;;
21754;SDS011;11039;50.028;19.938;2022-11-20T04:20:04;30.38;;;23.80;;
21754;SDS011;11039;50.028;19.938;2022-11-20T04:22:30;32.72;;;26.00;;
21754;SDS011;11039;50.028;19.938;2022-11-20T04:24:56;31.05;;;25.13;;
21754;SDS011;11039;50.028;19.938;2022-11-20T04:27:22;31.00;;;25.02;;
21754;SDS011;11039;50.028;19.938;2022-11-20T04:29:48;31.00;;;25.27;;
21754;SDS011;11039;50.028;19.938;2022-11-20T04:32:14;31.25;;;25.83;;
21754;SDS011;11039;50.028;19.938;2022-11-20T04:34:40;31.67;;;25.30;;
21754;SDS011;11039;50.028;19.938;2022-11-20T04:37:06;31.05;;;24.88;;
21754;SDS011;11039;50.028;19.938;2022-11-20T04:39:32;30.08;;;24.73;;
21754;SDS011;11039;50.028;19.938;2022-11-20T04:41:58;30.63;;;25.35;;
21754;SDS011;11039;50.028;19.938;2022-11-20T04:44:43;31.30;;;26.27;;
21754;SDS011;11039;50.028;19.938;2022-11-20T04:47:09;31.33;;;26.17;;
21754;SDS011;11039;50.028;19.938;2022-11-20T04:49:35;31.23;;;25.55;;
21754;SDS011;11039;50.028;19.938;2022-11-20T04:52:01;32.88;;;25.70;;
21754;SDS011;11039;50.028;19.938;2022-11-20T04:54:27;31.80;;;26.13;;
21754;SDS011;11039;50.028;19.938;2022-11-20T04:56:53;30.75;;;24.55;;
21754;SDS011;11039;50.028;19.938;2022-11-20T04:59:19;30.75;;;25.55;;
21754;SDS011;11039;50.028;19.938;2022-11-20T05:01:45;30.50;;;24.95;;
21754;SDS011;11039;50.028;19.938;2022-11-20T05:04:10;32.45;;;25.40;;
21754;SDS011;11039;50.028;19.938;2022-11-20T05:06:36;29.60;;;25.00;;
21754;SDS011;11039;50.028;19.938;2022-11-20T05:09:03;30.65;;;24.90;;
21754;SDS011;11039;50.028;19.938;2022-11-20T05:11:29;33.65;;;26.23;;
21754;SDS011;11039;50.028;19.938;2022-11-20T05:13:55;31.10;;;25.98;;
21754;SDS011;11039;50.028;19.938;2022-11-20T05:16:22;32.33;;;26.45;;
21754;SDS011;11039;50.028;19.938;2022-11-20T05:18:48;31.10;;;25.52;;
21754;SDS011;11039;50.028;19.938;2022-11-20T05:21:15;30.33;;;24.48;;
21754;SDS011;11039;50.028;19.938;2022-11-20T05:23:41;30.20;;;24.48;;
21754;SDS011;11039;50.028;19.938;2022-11-20T05:26:08;31.13;;;25.30;;
21754;SDS011;11039;50.028;19.938;2022-11-20T05:28:37;30.40;;;24.65;;
21754;SDS011;11039;50.028;19.938;2022-11-20T05:31:07;30.38;;;24.45;;
21754;SDS011;11039;50.028;19.938;2022-11-20T05:33:34;31.27;;;24.75;;
21754;SDS011;11039;50.028;19.938;2022-11-20T05:36:01;30.08;;;25.10;;
21754;SDS011;11039;50.028;19.938;2022-11-20T05:38:27;29.30;;;24.73;;
21754;SDS011;11039;50.028;19.938;2022-11-20T05:40:53;32.85;;;26.23;;
21754;SDS011;11039;50.028;19.938;2022-11-20T05:43:19;31.60;;;26.27;;
21754;SDS011;11039;50.028;19.938;2022-11-20T05:45:51;31.00;;;25.65;;
21754;SDS011;11039;50.028;19.938;2022-11-20T05:48:17;31.40;;;25.42;;
21754;SDS011;11039;50.028;19.938;2022-11-20T05:50:43;29.60;;;24.38;;
21754;SDS011;11039;50.028;19.938;2022-11-20T05:53:09;29.23;;;24.00;;
21754;SDS011;11039;50.028;19.938;2022-11-20T05:55:35;29.88;;;24.98;;
21754;SDS011;11039;50.028;19.938;2022-11-20T05:58:01;31.27;;;25.33;;
21754;SDS011;11039;50.028;19.938;2022-11-20T06:00:27;29.73;;;24.55;;
21754;SDS011;11039;50.028;19.938;2022-11-20T06:02:53;32.47;;;25.55;;
21754;SDS011;11039;50.028;19.938;2022-11-20T06:05:19;30.80;;;24.95;;
21754;SDS011;11039;50.028;19.938;2022-11-20T06:07:45;31.00;;;24.35;;
21754;SDS011;11039;50.028;19.938;2022-11-20T06:10:11;31.08;;;24.88;;
21754;SDS011;11039;50.028;19.938;2022-11-20T06:12:37;29.98;;;24.60;;
21754;SDS011;11039;50.028;19.938;2022-11-20T06:15:04;27.63;;;23.38;;
21754;SDS011;11039;50.028;19.938;2022-11-20T06:17:30;32.75;;;25.75;;
21754;SDS011;11039;50.028;19.938;2022-11-20T06:19:56;33.45;;;26.67;;
21754;SDS011;11039;50.028;19.938;2022-11-20T06:22:22;31.73;;;26.35;;
21754;SDS011;11039;50.028;19.938;2022-11-20T06:24:48;31.48;;;25.55;;
21754;SDS011;11039;50.028;19.938;2022-11-20T06:27:14;31.83;;;24.17;;
21754;SDS011;11039;50.028;19.938;2022-11-20T06:29:40;31.15;;;25.20;;
21754;SDS011;11039;50.028;19.938;2022-11-20T06:32:06;29.42;;;23.98;;
21754;SDS011;11039;50.028;19.938;2022-11-20T06:34:32;31.48;;;26.00;;
21754;SDS011;11039;50.028;19.938;2022-11-20T06:36:58;32.83;;;26.27;;
21754;SDS011;11039;50.028;19.938;2022-11-20T06:39:24;31.98;;;25.17;;
21754;SDS011;11039;50.028;19.938;2022-11-20T06:41:50;29.08;;;24.80;;
21754;SDS011;11039;50.028;19.938;2022-11-20T06:44:16;33.75;;;25.42;;
21754;SDS011;11039;50.028;19.938;2022-11-20T06:46:42;30.60;;;24.50;;
21754;SDS011;11039;50.028;19.938;2022-11-20T06:49:08;29.45;;;24.83;;
21754;SDS011;11039;50.028;19.938;2022-11-20T06:51:34;31.15;;;24.70;;
21754;SDS011;11039;50.028;19.938;2022-11-20T06:54:00;30.50;;;24.70;;
21754;SDS011;11039;50.028;19.938;2022-11-20T06:56:26;33.42;;;26.15;;
21754;SDS011;11039;50.028;19.938;2022-11-20T06:58:52;31.50;;;25.35;;
21754;SDS011;11039;50.028;19.938;2022-11-20T07:01:18;32.25;;;25.52;;
21754;SDS011;11039;50.028;19.938;2022-11-20T07:03:44;33.08;;;25.60;;
21754;SDS011;11039;50.028;19.938;2022-11-20T07:06:10;31.13;;;25.67;;
21754;SDS011;11039;50.028;19.938;2022-11-20T07:08:37;30.10;;;24.58;;
21754;SDS011;11039;50.028;19.938;2022-11-20T07:11:04;29.45;;;23.80;;
21754;SDS011;11039;50.028;19.938;2022-11-20T07:13:31;31.25;;;24.48;;
21754;SDS011;11039;50.028;19.938;2022-11-20T07:16:01;29.27;;;25.52;;
21754;SDS011;11039;50.028;19.938;2022-11-20T07:18:27;31.08;;;25.05;;
21754;SDS011;11039;50.028;19.938;2022-11-20T07:20:54;31.95;;;25.08;;
21754;SDS011;11039;50.028;19.938;2022-11-20T07:23:20;32.65;;;25.92;;
21754;SDS011;11039;50.028;19.938;2022-11-20T07:25:46;31.65;;;25.75;;
21754;SDS011;11039;50.028;19.938;2022-11-20T07:28:12;32.72;;;26.00;;
21754;SDS011;11039;50.028;19.938;2022-11-20T07:30:38;34.45;;;27.25;;
21754;SDS011;11039;50.028;19.938;2022-11-20T07:33:04;32.47;;;25.48;;
21754;SDS011;11039;50.028;19.938;2022-11-20T07:35:31;32.22;;;25.20;;
21754;SDS011;11039;50.028;19.938;2022-11-20T07:37:57;32.47;;;25.02;;
21754;SDS011;11039;50.028;19.938;2022-11-20T07:40:23;33.35;;;25.98;;
21754;SDS011;11039;50.028;19.938;2022-11-20T07:42:50;32.63;;;25.85;;
21754;SDS011;11039;50.028;19.938;2022-11-20T07:45:16;32.80;;;25.52;;
21754;SDS011;11039;50.028;19.938;2022-11-20T07:47:43;33.08;;;25.55;;
21754;SDS011;11039;50.028;19.938;2022-11-20T07:50:09;32.40;;;25.65;;
21754;SDS011;11039;50.028;19.938;2022-11-20T07:52:35;33.47;;;26.17;;
21754;SDS011;11039;50.028;19.938;2022-11-20T07:55:01;35.17;;;26.65;;
21754;SDS011;11039;50.028;19.938;2022-11-20T07:57:27;34.03;;;26.25;;
21754;SDS011;11039;50.028;19.938;2022-11-20T07:59:53;34.88;;;27.27;;
21754;SDS011;11039;50.028;19.938;2022-11-20T08:02:19;35.00;;;26.90;;
21754;SDS011;11039;50.028;19.938;2022-11-20T08:04:45;35.72;;;27.23;;
21754;SDS011;11039;50.028;19.938;2022-11-20T08:07:11;36.00;;;27.38;;
21754;SDS011;11039;50.028;19.938;2022-11-20T08:09:37;35.13;;;27.15;;
21754;SDS011;11039;50.028;19.938;2022-11-20T08:12:03;36.47;;;27.40;;
21754;SDS011;11039;50.028;19.938;2022-11-20T08:14:48;37.42;;;28.50;;
21754;SDS011;11039;50.028;19.938;2022-11-20T08:17:14;38.28;;;28.50;;
21754;SDS011;11039;50.028;19.938;2022-11-20T08:19:40;37.85;;;28.50;;
21754;SDS011;11039;50.028;19.938;2022-11-20T08:22:06;36.35;;;27.85;;
21754;SDS011;11039;50.028;19.938;2022-11-20T08:24:32;37.40;;;28.13;;
21754;SDS011;11039;50.028;19.938;2022-11-20T08:26:58;34.85;;;27.50;;
21754;SDS011;11039;50.028;19.938;2022-11-20T08:29:25;38.38;;;28.42;;
21754;SDS011;11039;50.028;19.938;2022-11-20T08:31:52;37.83;;;29.50;;
21754;SDS011;11039;50.028;19.938;2022-11-20T08:34:18;38.45;;;28.75;;
21754;SDS011;11039;50.028;19.938;2022-11-20T08:36:44;36.90;;;28.05;;
21754;SDS011;11039;50.028;19.938;2022-11-20T08:39:13;37.05;;;27.95;;
21754;SDS011;11039;50.028;19.938;2022-11-20T08:41:39;35.33;;;28.02;;
21754;SDS011;11039;50.028;19.938;2022-11-20T08:44:06;38.63;;;29.05;;
21754;SDS011;11039;50.028;19.938;2022-11-20T08:46:33;39.28;;;30.23;;
21754;SDS011;11039;50.028;19.938;2022-11-20T08:49:01;36.30;;;27.83;;
21754;SDS011;11039;50.028;19.938;2022-11-20T08:51:27;38.97;;;29.27;;
21754;SDS011;11039;50.028;19.938;2022-11-20T08:53:53;38.25;;;28.98;;
21754;SDS011;11039;50.028;19.938;2022-11-20T08:56:19;39.70;;;29.13;;
21754;SDS011;11039;50.028;19.938;2022-11-20T08:58:45;36.25;;;27.75;;
21754;SDS011;11039;50.028;19.938;2022-11-20T09:01:11;38.88;;;29.65;;
21754;SDS011;11039;50.028;19.938;2022-11-20T09:03:37;38.45;;;29.23;;
21754;SDS011;11039;50.028;19.938;2022-11-20T09:06:05;37.42;;;27.27;;
21754;SDS011;11039;50.028;19.938;2022-11-20T09:08:31;37.03;;;28.10;;
21754;SDS011;11039;50.028;19.938;2022-11-20T09:10:58;38.58;;;28.73;;
21754;SDS011;11039;50.028;19.938;2022-11-20T09:13:24;36.33;;;28.40;;
21754;SDS011;11039;50.028;19.938;2022-11-20T09:15:58;36.80;;;28.80;;
21754;SDS011;11039;50.028;19.938;2022-11-20T09:18:25;38.28;;;29.23;;
21754;SDS011;11039;50.028;19.938;2022-11-20T09:20:51;35.53;;;28.02;;
21754;SDS011;11039;50.028;19.938;2022-11-20T09:23:17;38.65;;;28.55;;
21754;SDS011;11039;50.028;19.938;2022-11-20T09:25:43;38.63;;;28.42;;
21754;SDS011;11039;50.028;19.938;2022-11-20T09:28:09;35.38;;;27.38;;
21754;SDS011;11039;50.028;19.938;2022-11-20T09:30:35;36.72;;;28.85;;
21754;SDS011;11039;50.028;19.938;2022-11-20T09:33:03;37.83;;;27.95;;
21754;SDS011;11039;50.028;19.938;2022-11-20T09:35:29;36.97;;;28.48;;
21754;SDS011;11039;50.028;19.938;2022-11-20T09:37:55;35.28;;;27.30;;
21754;SDS011;11039;50.028;19.938;2022-11-20T09:40:30;37.42;;;28.15;;
21754;SDS011;11039;50.028;19.938;2022-11-20T09:43:04;36.22;;;28.30;;
21754;SDS011;11039;50.028;19.938;2022-11-20T09:48:25;37.75;;;28.25;;
21754;SDS011;11039;50.028;19.938;2022-11-20T09:55:45;38.55;;;27.52;;
21754;SDS011;11039;50.028;19.938;2022-11-20T09:58:29;36.17;;;27.27;;
21754;SDS011;11039;50.028;19.938;2022-11-20T10:00:59;36.15;;;27.73;;
21754;SDS011;11039;50.028;19.938;2022-11-20T10:03:30;46.40;;;29.45;;
21754;SDS011;11039;50.028;19.938;2022-11-20T10:06:01;41.03;;;29.52;;
21754;SDS011;11039;50.028;19.938;2022-11-20T10:08:29;39.55;;;27.85;;
21754;SDS011;11039;50.028;19.938;2022-11-20T10:31:07;35.78;;;26.10;;
21754;SDS011;11039;50.028;19.938;2022-11-20T10:33:39;37.45;;;28.15;;
21754;SDS011;11039;50.028;19.938;2022-11-20T10:36:07;36.70;;;28.17;;
21754;SDS011;11039;50.028;19.938;2022-11-20T10:38:35;36.63;;;27.15;;
21754;SDS011;11039;50.028;19.938;2022-11-20T10:41:02;38.58;;;27.45;;
21754;SDS011;11039;50.028;19.938;2022-11-20T10:43:47;37.13;;;27.65;;
21754;SDS011;11039;50.028;19.938;2022-11-20T10:46:18;33.75;;;26.77;;
21754;SDS011;11039;50.028;19.938;2022-11-20T10:48:47;37.90;;;26.85;;
21754;SDS011;11039;50.028;19.938;2022-11-20T11:01:44;37.97;;;29.03;;
21754;SDS011;11039;50.028;19.938;2022-11-20T11:04:44;36.92;;;27.80;;
21754;SDS011;11039;50.028;19.938;2022-11-20T11:09:46;38.72;;;28.58;;
21754;SDS011;11039;50.028;19.938;2022-11-20T11:12:13;40.75;;;26.80;;
21754;SDS011;11039;50.028;19.938;2022-11-20T11:14:43;39.50;;;28.10;;
21754;SDS011;11039;50.028;19.938;2022-11-20T11:17:18;38.25;;;26.77;;
21754;SDS011;11039;50.028;19.938;2022-11-20T11:19:45;39.83;;;27.80;;
21754;SDS011;11039;50.028;19.938;2022-11-20T11:22:15;37.75;;;27.33;;
21754;SDS011;11039;50.028;19.938;2022-11-20T11:24:45;36.47;;;27.95;;
21754;SDS011;11039;50.028;19.938;2022-11-20T11:27:16;35.67;;;26.85;;
21754;SDS011;11039;50.028;19.938;2022-11-20T11:29:42;37.28;;;26.75;;
21754;SDS011;11039;50.028;19.938;2022-11-20T11:32:11;38.90;;;27.83;;
21754;SDS011;11039;50.028;19.938;2022-11-20T11:34:37;37.03;;;28.00;;
21754;SDS011;11039;50.028;19.938;2022-11-20T11:37:03;38.33;;;26.85;;
21754;SDS011;11039;50.028;19.938;2022-11-20T11:39:31;35.73;;;28.20;;
21754;SDS011;11039;50.028;19.938;2022-11-20T11:41:59;37.63;;;27.58;;
21754;SDS011;11039;50.028;19.938;2022-11-20T11:47:17;35.97;;;27.13;;
21754;SDS011;11039;50.028;19.938;2022-11-20T11:49:45;38.75;;;27.75;;
21754;SDS011;11039;50.028;19.938;2022-11-20T11:52:18;35.97;;;26.42;;
21754;SDS011;11039;50.028;19.938;2022-11-20T11:54:51;35.72;;;27.02;;
21754;SDS011;11039;50.028;19.938;2022-11-20T12:00:13;33.58;;;26.23;;
21754;SDS011;11039;50.028;19.938;2022-11-20T12:07:47;35.45;;;26.88;;
21754;SDS011;11039;50.028;19.938;2022-11-20T12:10:23;37.03;;;26.50;;
21754;SDS011;11039;50.028;19.938;2022-11-20T12:12:59;35.53;;;26.25;;
21754;SDS011;11039;50.028;19.938;2022-11-20T12:15:30;33.75;;;25.60;;
21754;SDS011;11039;50.028;19.938;2022-11-20T12:17:56;33.97;;;26.20;;
21754;SDS011;11039;50.028;19.938;2022-11-20T12:20:24;39.15;;;29.65;;
21754;SDS011;11039;50.028;19.938;2022-11-20T12:30:28;61.05;;;41.33;;
21754;SDS011;11039;50.028;19.938;2022-11-20T12:35:31;61.13;;;40.17;;
21754;SDS011;11039;50.028;19.938;2022-11-20T12:43:05;56.15;;;38.47;;
21754;SDS011;11039;50.028;19.938;2022-11-20T13:01:34;46.42;;;33.78;;
21754;SDS011;11039;50.028;19.938;2022-11-20T13:06:50;47.72;;;34.03;;
21754;SDS011;11039;50.028;19.938;2022-11-20T13:09:17;45.55;;;32.95;;
21754;SDS011;11039;50.028;19.938;2022-11-20T13:16:48;53.22;;;34.10;;
21754;SDS011;11039;50.028;19.938;2022-11-20T13:19:16;56.72;;;35.97;;
21754;SDS011;11039;50.028;19.938;2022-11-20T13:21:44;59.95;;;36.38;;
21754;SDS011;11039;50.028;19.938;2022-11-20T13:27:04;51.75;;;34.67;;
21754;SDS011;11039;50.028;19.938;2022-11-20T13:29:31;51.40;;;33.83;;
21754;SDS011;11039;50.028;19.938;2022-11-20T13:34:29;48.97;;;32.53;;
21754;SDS011;11039;50.028;19.938;2022-11-20T13:36:56;50.65;;;32.38;;
21754;SDS011;11039;50.028;19.938;2022-11-20T13:39:34;50.30;;;32.50;;
21754;SDS011;11039;50.028;19.938;2022-11-20T13:44:42;45.35;;;32.30;;
21754;SDS011;11039;50.028;19.938;2022-11-20T13:47:19;46.08;;;31.08;;
21754;SDS011;11039;50.028;19.938;2022-11-20T13:49:47;45.47;;;31.92;;
21754;SDS011;11039;50.028;19.938;2022-11-20T13:59:57;44.97;;;29.92;;
21754;SDS011;11039;50.028;19.938;2022-11-20T14:02:25;44.63;;;30.33;;
21754;SDS011;11039;50.028;19.938;2022-11-20T14:04:52;50.33;;;30.30;;
21754;SDS011;11039;50.028;19.938;2022-11-20T14:07:20;42.20;;;30.63;;
21754;SDS011;11039;50.028;19.938;2022-11-20T14:09:54;41.58;;;30.00;;
21754;SDS011;11039;50.028;19.938;2022-11-20T14:12:22;41.47;;;29.25;;
21754;SDS011;11039;50.028;19.938;2022-11-20T14:14:49;46.42;;;31.33;;
21754;SDS011;11039;50.028;19.938;2022-11-20T14:19:54;41.05;;;29.48;;
21754;SDS011;11039;50.028;19.938;2022-11-20T14:22:22;39.05;;;30.05;;
21754;SDS011;11039;50.028;19.938;2022-11-20T14:24:59;38.10;;;28.27;;
21754;SDS011;11039;50.028;19.938;2022-11-20T14:27:26;40.95;;;29.40;;
21754;SDS011;11039;50.028;19.938;2022-11-20T14:29:52;39.08;;;29.45;;
21754;SDS011;11039;50.028;19.938;2022-11-20T14:32:19;39.20;;;28.00;;
21754;SDS011;11039;50.028;19.938;2022-11-20T14:34:47;35.38;;;27.73;;
21754;SDS011;11039;50.028;19.938;2022-11-20T14:37:21;38.03;;;28.58;;
21754;SDS011;11039;50.028;19.938;2022-11-20T14:39:50;39.83;;;29.98;;
21754;SDS011;11039;50.028;19.938;2022-11-20T14:42:21;39.25;;;29.83;;
21754;SDS011;11039;50.028;19.938;2022-11-20T14:44:47;39.25;;;27.90;;
21754;SDS011;11039;50.028;19.938;2022-11-20T14:47:15;39.00;;;29.60;;
21754;SDS011;11039;50.028;19.938;2022-11-20T14:49:42;37.88;;;28.48;;
21754;SDS011;11039;50.028;19.938;2022-11-20T14:52:16;38.60;;;29.33;;
21754;SDS011;11039;50.028;19.938;2022-11-20T14:54:43;37.92;;;28.73;;
21754;SDS011;11039;50.028;19.938;2022-11-20T14:57:18;39.10;;;28.55;;
21754;SDS011;11039;50.028;19.938;2022-11-20T14:59:45;40.20;;;29.55;;
21754;SDS011;11039;50.028;19.938;2022-11-20T15:02:11;37.63;;;28.65;;
21754;SDS011;11039;50.028;19.938;2022-11-20T15:04:44;39.05;;;28.38;;
21754;SDS011;11039;50.028;19.938;2022-11-20T15:07:11;34.67;;;27.88;;
21754;SDS011;11039;50.028;19.938;2022-11-20T15:09:37;35.75;;;27.90;;
21754;SDS011;11039;50.028;19.938;2022-11-20T15:12:03;40.63;;;28.25;;
21754;SDS011;11039;50.028;19.938;2022-11-20T15:14:30;34.75;;;27.65;;
21754;SDS011;11039;50.028;19.938;2022-11-20T15:16:57;39.30;;;27.67;;
21754;SDS011;11039;50.028;19.938;2022-11-20T15:19:25;37.00;;;28.05;;
21754;SDS011;11039;50.028;19.938;2022-11-20T15:21:51;34.00;;;26.95;;
21754;SDS011;11039;50.028;19.938;2022-11-20T15:24:18;38.90;;;28.13;;
21754;SDS011;11039;50.028;19.938;2022-11-20T15:26:44;36.22;;;27.38;;
21754;SDS011;11039;50.028;19.938;2022-11-20T15:29:10;37.38;;;29.00;;
21754;SDS011;11039;50.028;19.938;2022-11-20T15:31:37;33.22;;;26.80;;
21754;SDS011;11039;50.028;19.938;2022-11-20T15:34:09;35.50;;;28.20;;
21754;SDS011;11039;50.028;19.938;2022-11-20T15:36:36;36.83;;;27.90;;
21754;SDS011;11039;50.028;19.938;2022-11-20T15:39:02;39.05;;;28.98;;
21754;SDS011;11039;50.028;19.938;2022-11-20T15:41:29;36.55;;;28.50;;
21754;SDS011;11039;50.028;19.938;2022-11-20T15:43:55;35.95;;;27.40;;
21754;SDS011;11039;50.028;19.938;2022-11-20T15:46:23;36.60;;;27.13;;
21754;SDS011;11039;50.028;19.938;2022-11-20T15:48:51;36.55;;;28.30;;
21754;SDS011;11039;50.028;19.938;2022-11-20T15:51:29;35.13;;;28.27;;
21754;SDS011;11039;50.028;19.938;2022-11-20T15:53:56;34.85;;;27.08;;
21754;SDS011;11039;50.028;19.938;2022-11-20T15:56:22;34.53;;;27.30;;
21754;SDS011;11039;50.028;19.938;2022-11-20T15:58:48;33.90;;;27.15;;
21754;SDS011;11039;50.028;19.938;2022-11-20T16:01:15;38.40;;;27.60;;